Main page
METAR-TAF:

METAR-TAF

Airports :

Saint-Étienne–Bouthéon Airport

Saint-Etienne, France

latitude: 45-32N, longitude: 004-18E, elevation: 404 m

Current weather observation

The report was made 35 minutes ago, at 08:30 UTC
Wind 2 kt from variable directions
Temperature 20°C
Humidity 68%
Pressure 1022 hPa
Visibility 10 km or more
no clouds below 1500 m and no cumulonimbus

METAR: LFMH 150830Z AUTO VRB02KT CAVOK 20/14 Q1022 NOSIG

Time: 11:05 (09:05 UTC)

Forecast

The report was made 1 hour and 5 minutes ago, at 08:00 UTC
Forecast valid from 15 at 09 UTC to 16 at 09 UTC
Wind 2 kt from variable directions
Visibility 10 km or more
no clouds below 1500 m and no cumulonimbus
Temporary
from 15 at 12 UTC to 15 at 16 UTC
Wind 12 kt from the Northwest

TAF: LFMH 150800Z 1509/1609 VRB02KT CAVOK TEMPO 1512/1516 31012KT

Weather observations and forecasts of more than 4000 airports (METAR and TAF reports).

The available stations are represented by yellow and red dots on the map.

Hover mouse over dot to see the name of the station.

Then click to see weather observations and forecasts.

To change the map : click on the green buttons with a black cross to zoom in, on the green button with a dash to zoom out, or on the green arrows for adjacent maps.


METAR-TAF: